Portland Hillsboro Airport Portland US
ICAO: KHIO
IATA: HIO
Category: Medium
Scheduled Services: No

Elevation: 208 ft
TransAlt. 18000 ft.

Airport Communications:
APP/DEP:126
ATIS:127.65
CTAF:119.3
GND:121.7
HILLSBORO TWR:119.3
UNICOM:122.95

KHIO Zoom In..

Runways:

(A) RW 02 length 4050 ft width 100 ft
---- / hdg 23

(B) RW 13 length 6600 ft width 150 ft
ILS 110.70 / hdg 127

(C) RW 20 length 4050 ft width 100 ft
---- / hdg 203

(D) RW 31 length 6600 ft width 150 ft
---- / hdg 307

Location; KHIO
Day. 09 / Time. 22.53 Zulu
* Altimeter: 30.00
* Temperature: 23° c. 73.4°f.
* Wind from: 220° Speed 05 kn.
Dewpoint: 12° c.
Visibility: 10 Statute Miles.
Clouds: Few 4500 ft.
Clouds: Few 7000 ft.
Clouds: Broken 9000 ft.

KHIO 092253Z 22005KT 10SM FEW045 FEW070 BKN090 23/12 A3000 RMK AO2 SLP155 T02330117

Going to: --> -->


Wind From 220°
Speed 05 kn.

 
 
jpsmedia worldairports.se 2020   terms of use